Hustontown, Pennsylvania
Current Conditions -  °F | °C
As of 8:53 PM on Thursday 20 Nov 2014 (Local Time) from KAOO Reporting Station
Scattered Clouds Scattered Clouds  
Wind Chill: 12°   Ceiling: Unl
Heat Index: 24°   Visibility: 10mi
Dew Point: 10°   Wind: 13mph
Humidity: 55%   Direction: 290°WNW
Pressure: 30.02"   Gusts: NA
Location:  40.05°N, 78.03°W
Report Text: KAOO 210153Z AUTO 29011KT 10SM SCT039 M04/M12 A3002 RMK AO2 SLP184 T10441122
Loading
Personal Weather Stations






























Interactive Weather Map New forecast layout! Learn more

10-Day Weather Forecast

Advertisements
Track Severe Weather on mobile